This is the latest recevied weather packets stored in our database for station/object K5NAN. If no packets are shown the sender has not sent any weather packets the latest 10 day(s).
| Time | Temp. | Humidity | Pressure | Rain* | Wind** | Luminosity | Snow |
|---|---|---|---|---|---|---|---|
| 1777430439 | 22.78° C | 94% | 1010.2 hPa | 0 mm | - | 0 W/m² | - |
| 1777430139 | 22.78° C | 94% | 1010 hPa | 0 mm | - | 0 W/m² | - |
| 1777429834 | 22.78° C | 94% | 1009.8 hPa | 0 mm | - | 0 W/m² | - |
| 1777429531 | 23.33° C | 94% | 1009.7 hPa | 0 mm | - | 0 W/m² | - |
| 1777429227 | 23.33° C | 93% | 1009.4 hPa | 0 mm | - | 0 W/m² | - |
| 1777428923 | 23.33° C | 93% | 1009.5 hPa | 0 mm | - | 0 W/m² | - |
| 1777428619 | 22.78° C | 93% | 1009.3 hPa | 0 mm | - | 0 W/m² | - |
| 1777428315 | 22.78° C | 93% | 1009.1 hPa | 0 mm | - | 0 W/m² | - |
| 1777428010 | 22.78° C | 93% | 1008.9 hPa | 0 mm | - | 0 W/m² | - |
| 1777427707 | 23.33° C | 92% | 1008.9 hPa | 0 mm | - | 0 W/m² | - |
| 1777427404 | 23.33° C | 92% | 1008.9 hPa | 0 mm | - | 0 W/m² | - |
| 1777427100 | 23.33° C | 92% | 1009 hPa | 0 mm | - | 0 W/m² | - |
| 1777426798 | 23.33° C | 91% | 1009 hPa | 0 mm | - | 0 W/m² | - |
| 1777426494 | 23.33° C | 91% | 1008.9 hPa | 0 mm | - | 0 W/m² | - |
| 1777426190 | 23.89° C | 90% | 1009 hPa | 0 mm | - | 0 W/m² | - |
| 1777425885 | 23.89° C | 89% | 1008.6 hPa | 0 mm | - | 0 W/m² | - |
| 1777425581 | 23.89° C | 89% | 1008 hPa | 0 mm | - | 0 W/m² | - |
| 1777425277 | 24.44° C | 89% | 1008.1 hPa | 0 mm | - | 1 W/m² | - |
| 1777424974 | 24.44° C | 88% | 1007.8 hPa | 0 mm | - | 2 W/m² | - |
| 1777424669 | 24.44° C | 88% | 1007.9 hPa | 0 mm | - | 5 W/m² | - |
| 1777424364 | 24.44° C | 88% | 1007.9 hPa | 0 mm | - | 9 W/m² | - |
| 1777424060 | 25° C | 87% | 1007.8 hPa | 0 mm | - | 14 W/m² | - |
| 1777423758 | 25° C | 87% | 1008 hPa | 0 mm | - | 21 W/m² | - |
| 1777423454 | 25° C | 86% | 1008.3 hPa | 0 mm | - | 29 W/m² | - |
| 1777423150 | 25° C | 86% | 1008.4 hPa | 0 mm | - | 38 W/m² | - |
* Rain latest hour (hover to see other rain measurements)
** Current wind speed in m/s (hover to see current wind gust speed)